sensor_id;sensor_type;location;lat;lon;timestamp;pressure;altitude;pressure_sealevel;temperature;humidity
6694;BME280;3384;42.628;23.380;2023-08-01T00:00:29;93903.13;;;21.42;100.00
6694;BME280;3384;42.628;23.380;2023-08-01T00:02:56;93892.91;;;21.32;100.00
6694;BME280;3384;42.628;23.380;2023-08-01T00:05:23;93895.75;;;21.46;100.00
6694;BME280;3384;42.628;23.380;2023-08-01T00:07:50;93899.78;;;21.19;100.00
6694;BME280;3384;42.628;23.380;2023-08-01T00:10:17;93889.56;;;21.09;100.00
6694;BME280;3384;42.628;23.380;2023-08-01T00:12:43;93896.44;;;20.96;100.00
6694;BME280;3384;42.628;23.380;2023-08-01T00:15:12;93894.53;;;21.00;100.00
6694;BME280;3384;42.628;23.380;2023-08-01T00:17:38;93894.03;;;21.31;100.00
6694;BME280;3384;42.628;23.380;2023-08-01T00:20:06;93892.84;;;21.25;100.00
6694;BME280;3384;42.628;23.380;2023-08-01T00:22:34;93892.13;;;21.35;100.00
6694;BME280;3384;42.628;23.380;2023-08-01T00:25:00;93887.34;;;21.21;100.00
6694;BME280;3384;42.628;23.380;2023-08-01T00:27:27;93893.84;;;21.10;100.00
6694;BME280;3384;42.628;23.380;2023-08-01T00:29:54;93881.97;;;20.92;100.00
6694;BME280;3384;42.628;23.380;2023-08-01T00:32:23;93890.06;;;21.21;100.00
6694;BME280;3384;42.628;23.380;2023-08-01T00:34:50;93880.34;;;21.24;100.00
6694;BME280;3384;42.628;23.380;2023-08-01T00:37:17;93892.84;;;21.25;100.00
6694;BME280;3384;42.628;23.380;2023-08-01T00:39:44;93893.47;;;21.11;100.00
6694;BME280;3384;42.628;23.380;2023-08-01T00:42:11;93895.13;;;21.19;100.00
6694;BME280;3384;42.628;23.380;2023-08-01T00:44:37;93891.53;;;21.12;100.00
6694;BME280;3384;42.628;23.380;2023-08-01T00:47:04;93898.44;;;20.69;100.00
6694;BME280;3384;42.628;23.380;2023-08-01T00:49:33;93896.25;;;20.82;100.00
6694;BME280;3384;42.628;23.380;2023-08-01T00:51:59;93889.13;;;20.70;100.00
6694;BME280;3384;42.628;23.380;2023-08-01T00:54:26;93890.78;;;20.78;100.00
6694;BME280;3384;42.628;23.380;2023-08-01T00:56:56;93887.19;;;20.71;100.00
6694;BME280;3384;42.628;23.380;2023-08-01T00:59:22;93883.59;;;20.63;100.00
6694;BME280;3384;42.628;23.380;2023-08-01T01:01:49;93884.31;;;20.57;100.00
6694;BME280;3384;42.628;23.380;2023-08-01T01:04:16;93871.19;;;20.66;100.00
6694;BME280;3384;42.628;23.380;2023-08-01T01:06:47;93878.28;;;20.74;100.00
6694;BME280;3384;42.628;23.380;2023-08-01T01:09:16;93878.66;;;20.72;100.00
6694;BME280;3384;42.628;23.380;2023-08-01T01:11:43;93880.56;;;20.72;100.00
6694;BME280;3384;42.628;23.380;2023-08-01T01:14:10;93879.81;;;20.71;100.00
6694;BME280;3384;42.628;23.380;2023-08-01T01:16:37;93870.50;;;20.76;100.00
6694;BME280;3384;42.628;23.380;2023-08-01T01:19:06;93865.47;;;20.78;100.00
6694;BME280;3384;42.628;23.380;2023-08-01T01:21:37;93867.69;;;20.69;100.00
6694;BME280;3384;42.628;23.380;2023-08-01T01:24:05;93865.91;;;20.80;100.00
6694;BME280;3384;42.628;23.380;2023-08-01T01:26:33;93859.66;;;20.79;100.00
6694;BME280;3384;42.628;23.380;2023-08-01T01:29:00;93859.28;;;20.81;100.00
6694;BME280;3384;42.628;23.380;2023-08-01T01:31:28;93854.19;;;20.79;100.00
6694;BME280;3384;42.628;23.380;2023-08-01T01:33:55;93862.41;;;20.83;100.00
6694;BME280;3384;42.628;23.380;2023-08-01T01:36:22;93856.41;;;20.67;100.00
6694;BME280;3384;42.628;23.380;2023-08-01T01:38:50;93859.34;;;20.88;100.00
6694;BME280;3384;42.628;23.380;2023-08-01T01:41:17;93860.28;;;20.66;100.00
6694;BME280;3384;42.628;23.380;2023-08-01T01:43:44;93862.22;;;20.65;100.00
6694;BME280;3384;42.628;23.380;2023-08-01T01:46:11;93846.78;;;20.76;100.00
6694;BME280;3384;42.628;23.380;2023-08-01T01:48:37;93854.78;;;20.62;100.00
6694;BME280;3384;42.628;23.380;2023-08-01T01:51:04;93850.66;;;20.42;100.00
6694;BME280;3384;42.628;23.380;2023-08-01T01:53:31;93848.25;;;20.67;100.00
6694;BME280;3384;42.628;23.380;2023-08-01T01:55:59;93856.72;;;20.62;100.00
6694;BME280;3384;42.628;23.380;2023-08-01T01:58:26;93859.16;;;20.70;100.00
6694;BME280;3384;42.628;23.380;2023-08-01T02:00:52;93866.88;;;20.65;100.00
6694;BME280;3384;42.628;23.380;2023-08-01T02:03:19;93865.97;;;20.87;100.00
6694;BME280;3384;42.628;23.380;2023-08-01T02:05:46;93858.22;;;20.92;100.00
6694;BME280;3384;42.628;23.380;2023-08-01T02:08:13;93868.03;;;20.64;100.00
6694;BME280;3384;42.628;23.380;2023-08-01T02:10:40;93859.38;;;20.55;100.00
6694;BME280;3384;42.628;23.380;2023-08-01T02:13:08;93855.66;;;20.70;100.00
6694;BME280;3384;42.628;23.380;2023-08-01T02:15:36;93856.94;;;20.83;100.00
6694;BME280;3384;42.628;23.380;2023-08-01T02:18:03;93860.69;;;21.01;100.00
6694;BME280;3384;42.628;23.380;2023-08-01T02:20:29;93858.22;;;20.92;100.00
6694;BME280;3384;42.628;23.380;2023-08-01T02:22:57;93862.47;;;20.90;100.00
6694;BME280;3384;42.628;23.380;2023-08-01T02:25:24;93856.22;;;20.86;100.00
6694;BME280;3384;42.628;23.380;2023-08-01T02:27:50;93857.81;;;20.54;100.00
6694;BME280;3384;42.628;23.380;2023-08-01T02:30:19;93862.59;;;20.64;100.00
6694;BME280;3384;42.628;23.380;2023-08-01T02:32:45;93855.00;;;20.47;100.00
6694;BME280;3384;42.628;23.380;2023-08-01T02:35:12;93853.69;;;20.67;100.00
6694;BME280;3384;42.628;23.380;2023-08-01T02:37:39;93849.81;;;20.35;100.00
6694;BME280;3384;42.628;23.380;2023-08-01T02:40:08;93859.84;;;20.27;100.00
6694;BME280;3384;42.628;23.380;2023-08-01T02:42:35;93855.94;;;20.28;100.00
6694;BME280;3384;42.628;23.380;2023-08-01T02:45:03;93854.59;;;20.15;100.00
6694;BME280;3384;42.628;23.380;2023-08-01T02:47:31;93847.03;;;20.02;100.00
6694;BME280;3384;42.628;23.380;2023-08-01T02:49:58;93844.75;;;20.07;100.00
6694;BME280;3384;42.628;23.380;2023-08-01T02:52:24;93849.75;;;20.28;100.00
6694;BME280;3384;42.628;23.380;2023-08-01T02:54:51;93848.94;;;20.27;100.00
6694;BME280;3384;42.628;23.380;2023-08-01T02:57:18;93847.13;;;20.09;100.00
6694;BME280;3384;42.628;23.380;2023-08-01T02:59:44;93847.22;;;20.12;100.00
6694;BME280;3384;42.628;23.380;2023-08-01T03:02:11;93852.03;;;20.26;100.00
6694;BME280;3384;42.628;23.380;2023-08-01T03:04:39;93845.16;;;20.35;100.00
6694;BME280;3384;42.628;23.380;2023-08-01T03:07:06;93855.88;;;20.54;100.00
6694;BME280;3384;42.628;23.380;2023-08-01T03:09:33;93867.81;;;20.46;100.00
6694;BME280;3384;42.628;23.380;2023-08-01T03:12:00;93853.06;;;20.14;100.00
6694;BME280;3384;42.628;23.380;2023-08-01T03:14:27;93851.63;;;19.68;100.00
6694;BME280;3384;42.628;23.380;2023-08-01T03:16:53;93852.56;;;19.79;100.00
6694;BME280;3384;42.628;23.380;2023-08-01T03:19:20;93850.75;;;19.90;100.00
6694;BME280;3384;42.628;23.380;2023-08-01T03:21:48;93839.13;;;19.93;100.00
6694;BME280;3384;42.628;23.380;2023-08-01T03:24:15;93849.19;;;19.89;100.00
6694;BME280;3384;42.628;23.380;2023-08-01T03:26:42;93844.84;;;20.11;100.00
6694;BME280;3384;42.628;23.380;2023-08-01T03:29:08;93853.19;;;19.99;100.00
6694;BME280;3384;42.628;23.380;2023-08-01T03:31:35;93855.00;;;20.14;100.00
6694;BME280;3384;42.628;23.380;2023-08-01T03:34:02;93855.28;;;20.09;100.00
6694;BME280;3384;42.628;23.380;2023-08-01T03:36:29;93845.69;;;20.15;100.00
6694;BME280;3384;42.628;23.380;2023-08-01T03:38:57;93858.25;;;19.97;100.00
6694;BME280;3384;42.628;23.380;2023-08-01T03:41:24;93866.31;;;19.90;100.00
6694;BME280;3384;42.628;23.380;2023-08-01T03:43:51;93866.06;;;20.02;100.00
6694;BME280;3384;42.628;23.380;2023-08-01T03:46:18;93869.06;;;20.19;100.00
6694;BME280;3384;42.628;23.380;2023-08-01T03:48:45;93871.63;;;19.31;100.00
6694;BME280;3384;42.628;23.380;2023-08-01T03:51:12;93881.94;;;19.44;100.00
6694;BME280;3384;42.628;23.380;2023-08-01T03:53:40;93885.84;;;19.24;100.00
6694;BME280;3384;42.628;23.380;2023-08-01T03:56:09;93879.44;;;19.13;100.00
6694;BME280;3384;42.628;23.380;2023-08-01T03:58:35;93874.13;;;18.97;100.00
6694;BME280;3384;42.628;23.380;2023-08-01T04:01:02;93871.66;;;18.89;100.00
6694;BME280;3384;42.628;23.380;2023-08-01T04:03:31;93867.69;;;18.64;100.00
6694;BME280;3384;42.628;23.380;2023-08-01T04:05:58;93874.19;;;18.59;100.00
6694;BME280;3384;42.628;23.380;2023-08-01T04:08:25;93884.97;;;18.56;100.00
6694;BME280;3384;42.628;23.380;2023-08-01T04:10:52;93882.25;;;18.75;100.00
6694;BME280;3384;42.628;23.380;2023-08-01T04:13:20;93880.25;;;18.34;100.00
6694;BME280;3384;42.628;23.380;2023-08-01T04:15:47;93870.63;;;18.36;100.00
6694;BME280;3384;42.628;23.380;2023-08-01T04:18:14;93883.69;;;18.69;100.00
6694;BME280;3384;42.628;23.380;2023-08-01T04:20:41;93876.69;;;18.68;100.00
6694;BME280;3384;42.628;23.380;2023-08-01T04:23:08;93878.50;;;18.41;100.00
6694;BME280;3384;42.628;23.380;2023-08-01T04:25:34;93876.78;;;18.52;100.00
6694;BME280;3384;42.628;23.380;2023-08-01T04:28:01;93868.78;;;18.59;100.00
6694;BME280;3384;42.628;23.380;2023-08-01T04:30:29;93878.19;;;18.65;100.00
6694;BME280;3384;42.628;23.380;2023-08-01T04:32:58;93878.34;;;18.95;100.00
6694;BME280;3384;42.628;23.380;2023-08-01T04:35:25;93888.97;;;18.81;100.00
6694;BME280;3384;42.628;23.380;2023-08-01T04:37:52;93883.97;;;19.05;100.00
6694;BME280;3384;42.628;23.380;2023-08-01T04:40:19;93879.88;;;18.92;100.00
6694;BME280;3384;42.628;23.380;2023-08-01T04:42:45;93891.56;;;18.96;100.00
6694;BME280;3384;42.628;23.380;2023-08-01T04:45:12;93883.78;;;18.95;100.00
6694;BME280;3384;42.628;23.380;2023-08-01T04:47:41;93884.03;;;18.86;100.00
6694;BME280;3384;42.628;23.380;2023-08-01T04:50:08;93890.22;;;19.29;100.00
6694;BME280;3384;42.628;23.380;2023-08-01T04:52:34;93880.03;;;18.80;100.00
6694;BME280;3384;42.628;23.380;2023-08-01T04:55:01;93875.69;;;18.98;100.00
6694;BME280;3384;42.628;23.380;2023-08-01T04:57:28;93878.16;;;19.26;100.00
6694;BME280;3384;42.628;23.380;2023-08-01T04:59:55;93876.78;;;19.39;100.00
6694;BME280;3384;42.628;23.380;2023-08-01T05:02:22;93873.19;;;19.58;100.00
6694;BME280;3384;42.628;23.380;2023-08-01T05:04:51;93880.44;;;19.73;100.00
6694;BME280;3384;42.628;23.380;2023-08-01T05:07:17;93877.09;;;19.83;100.00
6694;BME280;3384;42.628;23.380;2023-08-01T05:09:44;93878.66;;;19.84;100.00
6694;BME280;3384;42.628;23.380;2023-08-01T05:12:11;93874.78;;;19.85;100.00
6694;BME280;3384;42.628;23.380;2023-08-01T05:14:38;93879.13;;;19.89;100.00
6694;BME280;3384;42.628;23.380;2023-08-01T05:17:05;93881.03;;;19.89;100.00
6694;BME280;3384;42.628;23.380;2023-08-01T05:19:31;93883.22;;;20.06;100.00
6694;BME280;3384;42.628;23.380;2023-08-01T05:22:00;93885.47;;;20.00;100.00
6694;BME280;3384;42.628;23.380;2023-08-01T05:24:26;93886.06;;;20.13;100.00
6694;BME280;3384;42.628;23.380;2023-08-01T05:26:53;93882.06;;;20.07;100.00
6694;BME280;3384;42.628;23.380;2023-08-01T05:29:20;93879.25;;;20.26;100.00
6694;BME280;3384;42.628;23.380;2023-08-01T05:31:47;93879.06;;;20.12;100.00
6694;BME280;3384;42.628;23.380;2023-08-01T05:34:13;93884.53;;;20.45;100.00
6694;BME280;3384;42.628;23.380;2023-08-01T05:36:40;93886.72;;;20.32;100.00
6694;BME280;3384;42.628;23.380;2023-08-01T05:39:08;93886.06;;;20.42;100.00
6694;BME280;3384;42.628;23.380;2023-08-01T05:41:35;93890.41;;;20.47;100.00
6694;BME280;3384;42.628;23.380;2023-08-01T05:44:03;93887.06;;;20.60;100.00
6694;BME280;3384;42.628;23.380;2023-08-01T05:46:30;93895.91;;;20.50;100.00
6694;BME280;3384;42.628;23.380;2023-08-01T05:48:57;93895.28;;;20.64;100.00
6694;BME280;3384;42.628;23.380;2023-08-01T05:51:24;93893.72;;;20.63;100.00
6694;BME280;3384;42.628;23.380;2023-08-01T05:53:51;93888.84;;;20.46;100.00
6694;BME280;3384;42.628;23.380;2023-08-01T05:56:19;93880.34;;;20.51;100.00
6694;BME280;3384;42.628;23.380;2023-08-01T05:58:46;93887.84;;;20.61;100.00
6694;BME280;3384;42.628;23.380;2023-08-01T06:01:13;93892.28;;;20.76;100.00
6694;BME280;3384;42.628;23.380;2023-08-01T06:03:40;93889.84;;;20.97;100.00
6694;BME280;3384;42.628;23.380;2023-08-01T06:06:07;93889.09;;;20.67;100.00
6694;BME280;3384;42.628;23.380;2023-08-01T06:08:33;93880.91;;;20.67;100.00
6694;BME280;3384;42.628;23.380;2023-08-01T06:11:00;93882.25;;;20.80;100.00
6694;BME280;3384;42.628;23.380;2023-08-01T06:13:28;93879.91;;;20.82;100.00
6694;BME280;3384;42.628;23.380;2023-08-01T06:15:55;93879.81;;;21.08;100.00
6694;BME280;3384;42.628;23.380;2023-08-01T06:18:22;93882.44;;;20.97;100.00
6694;BME280;3384;42.628;23.380;2023-08-01T06:20:48;93891.06;;;21.03;100.00
6694;BME280;3384;42.628;23.380;2023-08-01T06:23:15;93883.44;;;21.22;100.00
6694;BME280;3384;42.628;23.380;2023-08-01T06:25:42;93885.72;;;21.57;100.00
6694;BME280;3384;42.628;23.380;2023-08-01T06:28:09;93883.38;;;21.59;100.00
6694;BME280;3384;42.628;23.380;2023-08-01T06:30:37;93881.22;;;21.35;100.00
6694;BME280;3384;42.628;23.380;2023-08-01T06:33:04;93881.22;;;21.35;100.00
6694;BME280;3384;42.628;23.380;2023-08-01T06:35:31;93872.03;;;21.50;100.00
6694;BME280;3384;42.628;23.380;2023-08-01T06:37:58;93879.09;;;21.58;100.00
6694;BME280;3384;42.628;23.380;2023-08-01T06:40:25;93875.91;;;21.49;100.00
6694;BME280;3384;42.628;23.380;2023-08-01T06:42:52;93876.03;;;21.63;100.00
6694;BME280;3384;42.628;23.380;2023-08-01T06:45:18;93877.53;;;21.57;100.00
6694;BME280;3384;42.628;23.380;2023-08-01T06:47:46;93870.63;;;21.70;100.00
6694;BME280;3384;42.628;23.380;2023-08-01T06:50:13;93871.97;;;21.43;100.00
6694;BME280;3384;42.628;23.380;2023-08-01T06:52:40;93872.78;;;21.47;100.00
6694;BME280;3384;42.628;23.380;2023-08-01T06:55:07;93873.63;;;21.54;100.00
6694;BME280;3384;42.628;23.380;2023-08-01T06:57:35;93861.50;;;21.48;100.00
6694;BME280;3384;42.628;23.380;2023-08-01T07:00:02;93870.56;;;21.63;100.00
6694;BME280;3384;42.628;23.380;2023-08-01T07:02:29;93874.28;;;21.88;100.00
6694;BME280;3384;42.628;23.380;2023-08-01T07:04:57;93866.47;;;21.90;100.00
6694;BME280;3384;42.628;23.380;2023-08-01T07:07:24;93872.25;;;21.78;100.00
6694;BME280;3384;42.628;23.380;2023-08-01T07:09:51;93860.78;;;22.16;100.00
6694;BME280;3384;42.628;23.380;2023-08-01T07:12:17;93867.47;;;22.26;100.00
6694;BME280;3384;42.628;23.380;2023-08-01T07:14:44;93857.78;;;22.42;100.00
6694;BME280;3384;42.628;23.380;2023-08-01T07:17:11;93854.16;;;22.14;100.00
6694;BME280;3384;42.628;23.380;2023-08-01T07:19:38;93858.44;;;22.18;100.00
6694;BME280;3384;42.628;23.380;2023-08-01T07:22:06;93863.06;;;22.04;100.00
6694;BME280;3384;42.628;23.380;2023-08-01T07:24:33;93842.81;;;22.12;100.00
6694;BME280;3384;42.628;23.380;2023-08-01T07:27:00;93849.16;;;22.26;100.00
6694;BME280;3384;42.628;23.380;2023-08-01T07:29:26;93853.88;;;22.36;100.00
6694;BME280;3384;42.628;23.380;2023-08-01T07:31:53;93851.50;;;22.31;100.00
6694;BME280;3384;42.628;23.380;2023-08-01T07:34:20;93845.47;;;22.73;100.00
6694;BME280;3384;42.628;23.380;2023-08-01T07:36:48;93840.69;;;22.49;100.00
6694;BME280;3384;42.628;23.380;2023-08-01T07:39:16;93846.94;;;22.56;100.00
6694;BME280;3384;42.628;23.380;2023-08-01T07:41:43;93848.91;;;22.56;100.00
6694;BME280;3384;42.628;23.380;2023-08-01T07:44:10;93843.41;;;22.52;100.00
6694;BME280;3384;42.628;23.380;2023-08-01T07:46:37;93851.66;;;22.56;100.00
6694;BME280;3384;42.628;23.380;2023-08-01T07:49:04;93843.78;;;22.47;100.00
6694;BME280;3384;42.628;23.380;2023-08-01T07:51:30;93845.00;;;22.57;100.00
6694;BME280;3384;42.628;23.380;2023-08-01T07:53:59;93841.63;;;23.05;100.00
6694;BME280;3384;42.628;23.380;2023-08-01T07:56:27;93853.59;;;22.62;100.00
6694;BME280;3384;42.628;23.380;2023-08-01T07:58:54;93846.22;;;22.73;100.00
6694;BME280;3384;42.628;23.380;2023-08-01T08:01:21;93848.25;;;23.01;100.00
6694;BME280;3384;42.628;23.380;2023-08-01T08:03:48;93834.59;;;23.18;100.00
6694;BME280;3384;42.628;23.380;2023-08-01T08:06:14;93841.97;;;22.93;100.00
6694;BME280;3384;42.628;23.380;2023-08-01T08:08:41;93850.28;;;23.25;100.00
6694;BME280;3384;42.628;23.380;2023-08-01T08:11:08;93831.06;;;23.14;100.00
6694;BME280;3384;42.628;23.380;2023-08-01T08:13:35;93842.06;;;23.32;100.00
6694;BME280;3384;42.628;23.380;2023-08-01T08:16:02;93831.84;;;23.11;100.00
6694;BME280;3384;42.628;23.380;2023-08-01T08:18:30;93835.00;;;23.13;100.00
6694;BME280;3384;42.628;23.380;2023-08-01T08:20:56;93829.94;;;23.15;100.00
6694;BME280;3384;42.628;23.380;2023-08-01T08:23:23;93831.84;;;23.11;100.00
6694;BME280;3384;42.628;23.380;2023-08-01T08:25:50;93819.00;;;23.40;100.00
6694;BME280;3384;42.628;23.380;2023-08-01T08:28:27;93831.47;;;23.20;100.00
6694;BME280;3384;42.628;23.380;2023-08-01T08:30:56;93816.25;;;23.19;100.00
6694;BME280;3384;42.628;23.380;2023-08-01T08:33:23;93811.19;;;23.24;100.00
6694;BME280;3384;42.628;23.380;2023-08-01T08:35:50;93812.75;;;23.36;100.00
6694;BME280;3384;42.628;23.380;2023-08-01T08:38:17;93823.69;;;23.46;100.00
6694;BME280;3384;42.628;23.380;2023-08-01T08:40:55;93815.91;;;23.45;100.00
6694;BME280;3384;42.628;23.380;2023-08-01T08:43:27;93812.34;;;23.58;98.12
6694;BME280;3384;42.628;23.380;2023-08-01T08:45:57;93801.81;;;23.57;98.50
6694;BME280;3384;42.628;23.380;2023-08-01T08:48:26;93803.38;;;23.40;97.98
6694;BME280;3384;42.628;23.380;2023-08-01T08:50:57;93806.88;;;23.55;96.79
6694;BME280;3384;42.628;23.380;2023-08-01T08:53:24;93802.59;;;23.57;94.75
6694;BME280;3384;42.628;23.380;2023-08-01T08:55:52;93805.28;;;23.82;95.59
6694;BME280;3384;42.628;23.380;2023-08-01T08:58:19;93790.88;;;23.60;99.19
6694;BME280;3384;42.628;23.380;2023-08-01T09:00:46;93794.69;;;24.01;95.37
6694;BME280;3384;42.628;23.380;2023-08-01T09:03:15;93799.28;;;24.36;90.98
6694;BME280;3384;42.628;23.380;2023-08-01T09:05:45;93788.38;;;24.26;90.56
6694;BME280;3384;42.628;23.380;2023-08-01T09:08:17;93780.63;;;24.03;93.18
6694;BME280;3384;42.628;23.380;2023-08-01T09:10:44;93786.09;;;24.07;93.66
6694;BME280;3384;42.628;23.380;2023-08-01T09:13:11;93781.31;;;24.35;91.66
6694;BME280;3384;42.628;23.380;2023-08-01T09:15:39;93775.00;;;24.42;88.96
6694;BME280;3384;42.628;23.380;2023-08-01T09:18:07;93781.72;;;24.27;89.52
6694;BME280;3384;42.628;23.380;2023-08-01T09:20:43;93775.31;;;24.58;87.37
6694;BME280;3384;42.628;23.380;2023-08-01T09:23:10;93776.47;;;24.60;88.53
6694;BME280;3384;42.628;23.380;2023-08-01T09:25:37;93778.91;;;24.48;88.12
6694;BME280;3384;42.628;23.380;2023-08-01T09:28:17;93774.94;;;24.56;87.75
6694;BME280;3384;42.628;23.380;2023-08-01T09:30:51;93768.59;;;24.69;87.04
6694;BME280;3384;42.628;23.380;2023-08-01T09:33:19;93787.03;;;24.65;87.55
6694;BME280;3384;42.628;23.380;2023-08-01T09:35:49;93763.97;;;24.63;87.97
6694;BME280;3384;42.628;23.380;2023-08-01T09:38:16;93772.53;;;24.68;87.44
6694;BME280;3384;42.628;23.380;2023-08-01T09:40:44;93770.63;;;24.55;87.61
6694;BME280;3384;42.628;23.380;2023-08-01T09:43:12;93762.78;;;24.57;87.23
6694;BME280;3384;42.628;23.380;2023-08-01T09:45:49;93760.03;;;24.60;87.55
6694;BME280;3384;42.628;23.380;2023-08-01T09:48:25;93763.03;;;24.83;85.77
6694;BME280;3384;42.628;23.380;2023-08-01T09:51:04;93762.19;;;24.97;84.19
6694;BME280;3384;42.628;23.380;2023-08-01T09:53:31;93752.94;;;24.73;85.35
6694;BME280;3384;42.628;23.380;2023-08-01T09:55:59;93753.56;;;24.95;84.92
6694;BME280;3384;42.628;23.380;2023-08-01T09:58:29;93758.25;;;24.98;84.79
6694;BME280;3384;42.628;23.380;2023-08-01T10:00:58;93751.09;;;25.11;84.01
6694;BME280;3384;42.628;23.380;2023-08-01T10:03:27;93740.88;;;25.15;83.49
6694;BME280;3384;42.628;23.380;2023-08-01T10:05:55;93735.38;;;25.15;82.85
6694;BME280;3384;42.628;23.380;2023-08-01T10:08:22;93727.38;;;24.87;84.83
6694;BME280;3384;42.628;23.380;2023-08-01T10:10:50;93722.97;;;25.00;84.96
6694;BME280;3384;42.628;23.380;2023-08-01T10:13:20;93718.19;;;25.11;85.01
6694;BME280;3384;42.628;23.380;2023-08-01T10:15:49;93720.81;;;25.21;84.51
6694;BME280;3384;42.628;23.380;2023-08-01T10:18:17;93726.22;;;25.35;82.32
6694;BME280;3384;42.628;23.380;2023-08-01T10:20:44;93704.19;;;25.42;81.76
6694;BME280;3384;42.628;23.380;2023-08-01T10:23:13;93710.47;;;25.46;80.70
6694;BME280;3384;42.628;23.380;2023-08-01T10:25:40;93706.94;;;25.42;82.40
6694;BME280;3384;42.628;23.380;2023-08-01T10:28:07;93701.38;;;25.53;81.45
6694;BME280;3384;42.628;23.380;2023-08-01T10:30:34;93710.31;;;25.60;81.17
6694;BME280;3384;42.628;23.380;2023-08-01T10:33:01;93701.94;;;25.74;83.16
6694;BME280;3384;42.628;23.380;2023-08-01T10:35:32;93702.75;;;25.68;82.12
6694;BME280;3384;42.628;23.380;2023-08-01T10:38:04;93701.03;;;25.84;81.96
6694;BME280;3384;42.628;23.380;2023-08-01T10:40:37;93692.00;;;25.50;82.97
6694;BME280;3384;42.628;23.380;2023-08-01T10:43:04;93689.66;;;25.49;84.41
6694;BME280;3384;42.628;23.380;2023-08-01T10:45:31;93685.50;;;25.34;83.93
6694;BME280;3384;42.628;23.380;2023-08-01T10:48:08;93681.09;;;25.77;81.43
6694;BME280;3384;42.628;23.380;2023-08-01T10:50:35;93678.69;;;25.82;82.89
6694;BME280;3384;42.628;23.380;2023-08-01T10:53:04;93678.25;;;25.87;80.28
6694;BME280;3384;42.628;23.380;2023-08-01T10:55:43;93675.69;;;26.07;78.62
6694;BME280;3384;42.628;23.380;2023-08-01T10:58:11;93671.31;;;26.09;79.55
6694;BME280;3384;42.628;23.380;2023-08-01T11:00:38;93680.19;;;26.24;77.53
6694;BME280;3384;42.628;23.380;2023-08-01T11:03:05;93685.78;;;26.13;75.80
6694;BME280;3384;42.628;23.380;2023-08-01T11:05:31;93681.09;;;26.14;75.15
6694;BME280;3384;42.628;23.380;2023-08-01T11:07:59;93665.00;;;26.12;75.68
6694;BME280;3384;42.628;23.380;2023-08-01T11:10:27;93664.50;;;26.21;75.21
6694;BME280;3384;42.628;23.380;2023-08-01T11:12:56;93661.13;;;26.10;75.07
6694;BME280;3384;42.628;23.380;2023-08-01T11:15:23;93652.31;;;26.22;74.89
6694;BME280;3384;42.628;23.380;2023-08-01T11:17:52;93648.66;;;26.32;74.46
6694;BME280;3384;42.628;23.380;2023-08-01T11:20:21;93646.69;;;26.32;74.15
6694;BME280;3384;42.628;23.380;2023-08-01T11:22:53;93647.16;;;26.54;73.41
6694;BME280;3384;42.628;23.380;2023-08-01T11:25:32;93646.75;;;26.25;71.00
6694;BME280;3384;42.628;23.380;2023-08-01T11:28:03;93641.59;;;26.31;70.92
6694;BME280;3384;42.628;23.380;2023-08-01T11:30:31;93634.69;;;26.19;71.59
6694;BME280;3384;42.628;23.380;2023-08-01T11:32:58;93631.25;;;26.42;70.70
6694;BME280;3384;42.628;23.380;2023-08-01T11:35:25;93628.59;;;26.62;69.18
6694;BME280;3384;42.628;23.380;2023-08-01T11:37:52;93632.03;;;26.69;69.75
6694;BME280;3384;42.628;23.380;2023-08-01T11:40:19;93633.94;;;26.72;68.13
6694;BME280;3384;42.628;23.380;2023-08-01T11:42:48;93635.69;;;26.59;67.22
6694;BME280;3384;42.628;23.380;2023-08-01T11:45:18;93621.63;;;26.80;67.45
6694;BME280;3384;42.628;23.380;2023-08-01T11:47:45;93618.16;;;26.99;65.92
6694;BME280;3384;42.628;23.380;2023-08-01T11:50:12;93624.16;;;26.94;65.18
6694;BME280;3384;42.628;23.380;2023-08-01T11:52:39;93616.25;;;26.96;64.62
6694;BME280;3384;42.628;23.380;2023-08-01T11:55:07;93618.53;;;27.01;64.65
6694;BME280;3384;42.628;23.380;2023-08-01T11:57:34;93612.78;;;26.69;65.30
6694;BME280;3384;42.628;23.380;2023-08-01T12:00:01;93597.47;;;26.91;65.40
6694;BME280;3384;42.628;23.380;2023-08-01T12:02:30;93596.66;;;26.94;65.93
6694;BME280;3384;42.628;23.380;2023-08-01T12:04:57;93586.41;;;26.95;65.07
6694;BME280;3384;42.628;23.380;2023-08-01T12:07:25;93593.34;;;27.03;64.68
6694;BME280;3384;42.628;23.380;2023-08-01T12:09:57;93589.94;;;27.18;64.76
6694;BME280;3384;42.628;23.380;2023-08-01T12:12:25;93592.09;;;27.30;64.66
6694;BME280;3384;42.628;23.380;2023-08-01T12:14:52;93575.22;;;27.28;64.44
6694;BME280;3384;42.628;23.380;2023-08-01T12:17:19;93582.34;;;27.26;64.42
6694;BME280;3384;42.628;23.380;2023-08-01T12:19:48;93578.69;;;27.32;64.27
6694;BME280;3384;42.628;23.380;2023-08-01T12:22:15;93585.16;;;27.22;65.55
6694;BME280;3384;42.628;23.380;2023-08-01T12:24:41;93585.66;;;26.94;67.47
6694;BME280;3384;42.628;23.380;2023-08-01T12:27:08;93576.84;;;27.03;67.08
6694;BME280;3384;42.628;23.380;2023-08-01T12:29:35;93568.56;;;27.26;66.73
6694;BME280;3384;42.628;23.380;2023-08-01T12:32:02;93560.00;;;27.43;65.85
6694;BME280;3384;42.628;23.380;2023-08-01T12:34:29;93568.75;;;27.38;66.15
6694;BME280;3384;42.628;23.380;2023-08-01T12:36:57;93559.16;;;27.46;65.43
6694;BME280;3384;42.628;23.380;2023-08-01T12:39:24;93562.50;;;27.54;64.08
6694;BME280;3384;42.628;23.380;2023-08-01T12:41:51;93551.72;;;27.63;62.89
6694;BME280;3384;42.628;23.380;2023-08-01T12:44:19;93558.03;;;27.63;62.25
6694;BME280;3384;42.628;23.380;2023-08-01T12:46:46;93572.53;;;27.64;62.21
6694;BME280;3384;42.628;23.380;2023-08-01T12:49:13;93557.94;;;27.67;60.17
6694;BME280;3384;42.628;23.380;2023-08-01T12:51:40;93560.56;;;27.35;59.79
6694;BME280;3384;42.628;23.380;2023-08-01T12:54:08;93546.22;;;27.43;60.08
6694;BME280;3384;42.628;23.380;2023-08-01T12:56:35;93564.69;;;27.62;60.43
6694;BME280;3384;42.628;23.380;2023-08-01T12:59:02;93546.91;;;27.86;60.69
6694;BME280;3384;42.628;23.380;2023-08-01T13:01:29;93544.09;;;27.90;59.10
6694;BME280;3384;42.628;23.380;2023-08-01T13:03:56;93544.38;;;27.95;59.36
6694;BME280;3384;42.628;23.380;2023-08-01T13:06:22;93540.19;;;28.07;59.32